createdAt,value
2023-02-25T00:03:57.752Z,1.48
2023-02-25T00:10:01.493Z,1.83
2023-02-25T00:16:07.197Z,1.80
2023-02-25T00:22:10.809Z,1.58
2023-02-25T00:28:14.290Z,1.75
2023-02-25T00:34:19.016Z,1.30
2023-02-25T00:40:22.377Z,1.50
2023-02-25T00:46:26.734Z,2.25
2023-02-25T00:52:31.601Z,1.65
2023-02-25T00:58:36.938Z,1.90
2023-02-25T01:04:40.530Z,1.40
2023-02-25T01:10:45.306Z,1.58
2023-02-25T01:16:49.323Z,1.05
2023-02-25T01:22:52.723Z,1.23
2023-02-25T01:28:57.908Z,1.25
2023-02-25T01:35:02.430Z,1.13
2023-02-25T01:41:06.283Z,1.35
2023-02-25T01:47:21.550Z,1.40
2023-02-25T01:53:26.899Z,1.08
2023-02-25T01:59:31.685Z,1.33
2023-02-25T02:05:42.865Z,1.20
2023-02-25T02:11:46.257Z,1.45
2023-02-25T02:17:51.467Z,1.38
2023-02-25T02:24:14.651Z,1.60
2023-02-25T02:30:29.700Z,1.20
2023-02-25T02:36:40.086Z,1.30
2023-02-25T02:42:46.981Z,0.90
2023-02-25T02:48:53.237Z,1.35
2023-02-25T02:55:01.454Z,1.17
2023-02-25T03:01:06.958Z,1.27
2023-02-25T03:07:12.131Z,1.10
2023-02-25T03:13:17.410Z,1.33
2023-02-25T03:19:23.120Z,1.42
2023-02-25T03:25:29.371Z,1.20
2023-02-25T03:31:36.794Z,1.13
2023-02-25T03:37:42.239Z,1.30
2023-02-25T03:43:47.907Z,1.70
2023-02-25T03:49:59.312Z,1.25
2023-02-25T03:56:05.828Z,0.98
2023-02-25T04:02:09.284Z,1.30
2023-02-25T04:08:17.011Z,1.95
2023-02-25T04:14:21.009Z,1.10
2023-02-25T04:20:24.410Z,1.33
2023-02-25T04:26:29.492Z,1.23
2023-02-25T04:32:33.011Z,1.20
2023-02-25T04:38:36.417Z,1.08
2023-02-25T04:44:41.250Z,0.93
2023-02-25T04:50:44.653Z,1.55
2023-02-25T04:56:48.389Z,1.27
2023-02-25T05:02:53.243Z,1.83
2023-02-25T05:08:57.702Z,1.40
2023-02-25T05:15:01.160Z,1.35
2023-02-25T05:21:07.931Z,2.05
2023-02-25T05:27:11.328Z,1.30
2023-02-25T05:33:14.712Z,1.35
2023-02-25T05:39:19.596Z,1.80
2023-02-25T05:45:23.226Z,1.90
2023-02-25T05:51:26.734Z,1.10
2023-02-25T05:57:31.604Z,1.48
2023-02-25T06:03:35.105Z,1.42
2023-02-25T06:09:38.957Z,1.60
2023-02-25T06:15:44.276Z,1.58
2023-02-25T06:21:47.725Z,1.00
2023-02-25T06:27:51.181Z,0.80
2023-02-25T06:33:56.377Z,1.60
2023-02-25T06:39:59.866Z,1.10
2023-02-25T06:46:05.691Z,1.83
2023-02-25T06:52:10.496Z,1.45
2023-02-25T06:58:15.637Z,0.95
2023-02-25T07:04:19.994Z,1.45
2023-02-25T07:10:24.813Z,1.02
2023-02-25T07:16:29.994Z,1.40
2023-02-25T07:22:33.426Z,1.48
2023-02-25T07:28:38.474Z,1.65
2023-02-25T07:34:41.851Z,1.85
2023-02-25T07:40:45.325Z,1.98
2023-02-25T07:46:50.271Z,2.10
2023-02-25T07:52:53.839Z,1.85
2023-02-25T07:58:57.241Z,2.20
2023-02-25T08:05:02.668Z,2.22
2023-02-25T08:11:09.496Z,2.53
2023-02-25T08:17:13.180Z,2.10
2023-02-25T08:23:19.654Z,1.63
2023-02-25T08:29:23.069Z,1.60
2023-02-25T08:35:26.646Z,1.15
2023-02-25T08:41:32.112Z,1.30
2023-02-25T08:47:35.540Z,1.23
2023-02-25T08:53:39.350Z,1.10
2023-02-25T08:59:44.190Z,1.60
2023-02-25T09:05:52.586Z,1.85
2023-02-25T09:11:56.285Z,1.33
2023-02-25T09:18:01.411Z,1.48
2023-02-25T09:24:04.799Z,0.75
2023-02-25T09:30:08.897Z,1.55
2023-02-25T09:36:14.841Z,1.30
2023-02-25T09:42:20.474Z,1.70
2023-02-25T09:48:26.891Z,1.95
2023-02-25T09:54:34.643Z,1.73
2023-02-25T10:00:43.160Z,1.70
2023-02-25T10:06:49.352Z,1.27
2023-02-25T10:12:58.667Z,1.45
2023-02-25T10:19:05.947Z,1.42
2023-02-25T10:25:13.499Z,1.30
2023-02-25T10:31:19.692Z,1.35
2023-02-25T10:37:24.642Z,1.42
2023-02-25T10:43:28.599Z,1.08
2023-02-25T10:49:38.314Z,1.10
2023-02-25T10:55:51.642Z,1.25
2023-02-25T11:01:56.177Z,1.50
2023-02-25T11:08:02.206Z,1.67
2023-02-25T11:14:07.033Z,1.23
2023-02-25T11:20:23.319Z,1.85
2023-02-25T11:26:31.500Z,1.27
2023-02-25T11:32:35.223Z,1.40
2023-02-25T11:38:39.853Z,1.23
2023-02-25T11:44:45.654Z,1.10
2023-02-25T11:50:50.963Z,0.70
2023-02-25T11:56:57.180Z,0.90
2023-02-25T12:03:15.401Z,1.10
2023-02-25T12:09:37.472Z,1.45
2023-02-25T12:15:55.904Z,1.20
2023-02-25T12:22:18.029Z,1.58
2023-02-25T12:28:32.497Z,1.77
2023-02-25T12:34:48.368Z,1.55
2023-02-25T12:41:00.403Z,1.27
2023-02-25T12:47:10.577Z,1.20
2023-02-25T12:53:20.990Z,1.23
2023-02-25T12:59:40.538Z,1.35
2023-02-25T13:06:01.729Z,1.17
2023-02-25T13:12:14.707Z,1.10
2023-02-25T13:18:21.653Z,1.20
2023-02-25T13:24:30.418Z,1.02
2023-02-25T13:30:41.010Z,1.50
2023-02-25T13:36:55.174Z,1.17
2023-02-25T13:43:03.975Z,1.40
2023-02-25T13:49:31.620Z,1.42
2023-02-25T13:55:47.118Z,1.58
2023-02-25T14:01:58.849Z,1.13
2023-02-25T14:08:17.124Z,1.50
2023-02-25T14:14:34.084Z,2.22
2023-02-25T14:20:41.252Z,1.23
2023-02-25T14:26:49.847Z,1.48
2023-02-25T14:33:03.869Z,1.20
2023-02-25T14:39:23.648Z,1.05
2023-02-25T14:45:30.647Z,1.08
2023-02-25T14:51:47.729Z,1.40
2023-02-25T14:58:00.616Z,1.42
2023-02-25T15:04:13.549Z,0.63
2023-02-25T15:10:27.578Z,0.90
2023-02-25T15:16:42.128Z,2.05
2023-02-25T15:22:55.374Z,1.40
2023-02-25T15:29:00.504Z,1.30
2023-02-25T15:35:06.787Z,1.50
2023-02-25T15:41:28.867Z,1.38
2023-02-25T15:47:34.051Z,1.27
2023-02-25T15:53:49.160Z,1.27
2023-02-25T15:59:55.815Z,1.42
2023-02-25T16:06:03.362Z,1.40
2023-02-25T16:12:08.869Z,1.60
2023-02-25T16:18:18.514Z,1.50
2023-02-25T16:24:24.926Z,2.00
2023-02-25T16:30:32.225Z,1.83
2023-02-25T16:36:37.994Z,1.88
2023-02-25T16:42:43.025Z,1.52
2023-02-25T16:48:51.598Z,4.85
2023-02-25T16:54:56.600Z,1.80
2023-02-25T17:01:04.053Z,1.42
2023-02-25T17:07:09.273Z,1.70
2023-02-25T17:13:16.429Z,1.70
2023-02-25T17:19:22.216Z,1.50
2023-02-25T17:25:27.440Z,1.38
2023-02-25T17:31:31.533Z,1.85
2023-02-25T17:37:37.051Z,1.65
2023-02-25T17:43:41.402Z,2.25
2023-02-25T17:49:44.779Z,1.55
2023-02-25T17:55:49.597Z,2.38
2023-02-25T18:01:54.824Z,2.20
2023-02-25T18:08:04.576Z,2.65
2023-02-25T18:14:24.395Z,2.25
2023-02-25T18:20:31.549Z,2.35
2023-02-25T18:26:34.892Z,2.20
2023-02-25T18:32:40.113Z,2.38
2023-02-25T18:38:43.808Z,1.92
2023-02-25T18:44:48.425Z,2.15
2023-02-25T18:50:53.176Z,3.08
2023-02-25T18:56:56.557Z,2.13
2023-02-25T19:03:01.075Z,2.17
2023-02-25T19:09:06.452Z,2.95
2023-02-25T19:15:10.901Z,2.45
2023-02-25T19:21:15.212Z,2.85
2023-02-25T19:27:24.883Z,5.32
2023-02-25T19:33:28.330Z,3.13
2023-02-25T19:39:31.936Z,3.17
2023-02-25T19:45:36.981Z,4.05
2023-02-25T19:51:41.385Z,3.05
2023-02-25T19:57:45.082Z,2.75
2023-02-25T20:03:51.171Z,2.88
2023-02-25T20:09:54.642Z,3.10
2023-02-25T20:16:02.205Z,2.65
2023-02-25T20:22:07.377Z,3.25
2023-02-25T20:28:10.780Z,3.38
2023-02-25T20:34:15.952Z,5.35
2023-02-25T20:40:21.582Z,6.25
2023-02-25T20:46:26.432Z,2.15
2023-02-25T20:52:30.038Z,2.35
2023-02-25T20:58:34.903Z,2.30
2023-02-25T21:04:38.370Z,2.42
2023-02-25T21:10:43.199Z,2.30
2023-02-25T21:16:48.042Z,3.15
2023-02-25T21:22:51.440Z,2.63
2023-02-25T21:28:54.857Z,2.38
2023-02-25T21:34:59.633Z,2.63
2023-02-25T21:41:06.832Z,2.63
2023-02-25T21:47:10.200Z,2.70
2023-02-25T21:53:14.991Z,2.22
2023-02-25T21:59:18.675Z,1.98
2023-02-25T22:05:22.144Z,1.90
2023-02-25T22:11:28.295Z,1.73
2023-02-25T22:17:31.694Z,1.95
2023-02-25T22:23:35.285Z,2.20
2023-02-25T22:29:40.753Z,2.08
2023-02-25T22:35:44.180Z,7.03
2023-02-25T22:41:47.665Z,3.17
2023-02-25T22:47:52.455Z,2.00
2023-02-25T22:53:56.179Z,2.90
2023-02-25T22:59:59.819Z,4.13
2023-02-25T23:06:04.687Z,3.28
2023-02-25T23:12:08.189Z,3.15
2023-02-25T23:18:11.698Z,2.90
2023-02-25T23:24:19.439Z,2.85
2023-02-25T23:30:23.080Z,2.95
2023-02-25T23:36:27.190Z,2.20
2023-02-25T23:42:32.445Z,2.70
2023-02-25T23:48:35.825Z,2.10
2023-02-25T23:54:39.265Z,2.00
